ADDS METAR Data INFO
IDs: Format: Raw Decoded Include TAF

Data at: 1935 UTC 19 Jul 2018

KANE 191850Z 11010G15KT 10SM OVC018 22/18 A2976
KANE 191825Z 13014KT 10SM OVC013 22/18 A2976
KANE 191747Z 13010G17KT 10SM -RA SCT018 BKN034 OVC090 22/20 A2978
KANE 191647Z 16018G24KT 7SM -RA SCT018 BKN027 OVC090 21/18 A2982
KANE 191615Z 15014G24KT 7SM -RA BKN021 OVC090 22/17 A2982
KANE 191545Z 14014G22KT 10SM SCT021 OVC090 24/17 A2980
KANE 191450Z 14012G20KT 10SM SCT021 BKN100 BKN250 24/18 A2982
KANE 191345Z 14012KT 10SM FEW030 SCT100 BKN250 24/18 A2984
KANE 191259Z 14007KT 10SM SCT100 BKN250 23/19 A2984
KANE 191159Z 14007KT 10SM SCT100 BKN250 21/18 A2986
KANE 191155Z AUTO 12007KT 10SM CLR 21/18 A2986 RMK AO2
KANE 191136Z AUTO 13007KT 10SM CLR 20/18 A2986 RMK AO2
KANE 191135Z AUTO 12007KT 10SM CLR 20/18 A2986 RMK AO2
KANE 191116Z AUTO 12006KT 10SM CLR 20/18 A2987 RMK AO2
KANE 191115Z AUTO 12006KT 10SM CLR 20/18 A2987 RMK AO2
KANE 191055Z AUTO 11006KT 10SM CLR 19/17 A2987 RMK AO2
KANE 191036Z AUTO 11005KT 10SM CLR 19/17 A2988 RMK AO2
KANE 191035Z AUTO 11005KT 10SM CLR 19/17 A2988 RMK AO2
KANE 191016Z AUTO 11004KT 10SM CLR 19/17 A2989 RMK AO2
KANE 191015Z AUTO 11004KT 10SM CLR 19/17 A2989 RMK AO2
KANE 190955Z AUTO 12004KT 10SM CLR 19/16 A2989 RMK AO2
KANE 190935Z AUTO 12005KT 10SM CLR 19/16 A2989 RMK AO2
KANE 190915Z AUTO 12004KT 10SM CLR 20/16 A2990 RMK AO2
KANE 190856Z AUTO 11004KT 10SM CLR 21/16 A2991 RMK AO2
KANE 190855Z AUTO 11004KT 10SM CLR 21/16 A2991 RMK AO2
KANE 190835Z AUTO 12004KT 10SM CLR 20/16 A2991 RMK AO2
KANE 190815Z AUTO 12004KT 10SM CLR 20/16 A2991 RMK AO2
KANE 190756Z AUTO 15003KT 10SM CLR 21/16 A2992 RMK AO2
KANE 190755Z AUTO 15003KT 10SM CLR 21/16 A2992 RMK AO2
KANE 190735Z AUTO 13004KT 10SM CLR 21/16 A2992 RMK AO2
KANE 190715Z AUTO 14005KT 10SM CLR 21/16 A2993 RMK AO2
KANE 190655Z AUTO 13005KT 10SM CLR 21/16 A2993 RMK AO2
KANE 190635Z AUTO 14003KT 10SM CLR 21/16 A2994 RMK AO2
KANE 190616Z AUTO 14003KT 10SM CLR 21/16 A2995 RMK AO2
KANE 190615Z AUTO 14003KT 10SM CLR 21/16 A2995 RMK AO2
KANE 190555Z AUTO 12004KT 10SM CLR 21/16 A2995 RMK AO2
KANE 190535Z AUTO 13003KT 10SM CLR 21/16 A2996 RMK AO2
KANE 190516Z AUTO 12003KT 10SM CLR 21/16 A2996 RMK AO2
KANE 190515Z AUTO 13003KT 10SM CLR 21/16 A2996 RMK AO2
KANE 190456Z AUTO 13004KT 10SM CLR 22/16 A2996 RMK AO2
KANE 190435Z AUTO 12005KT 10SM CLR 22/16 A2996 RMK AO2
KANE 190416Z AUTO 13004KT 10SM CLR 22/16 A2996 RMK AO2
KANE 190415Z AUTO 13004KT 10SM CLR 22/16 A2996 RMK AO2
KANE 190356Z AUTO 13005KT 10SM CLR 22/15 A2997 RMK AO2
KANE 190355Z AUTO 13005KT 10SM CLR 22/15 A2997 RMK AO2
KANE 190335Z AUTO 13004KT 10SM CLR 23/15 A2997 RMK AO2
KANE 190316Z AUTO 12005KT 10SM CLR 23/15 A2997 RMK AO2
KANE 190315Z AUTO 12005KT 10SM CLR 23/15 A2997 RMK AO2
KANE 190250Z 12006KT 10SM BKN250 23/15 A2998
KANE 190150Z 12006KT 10SM BKN250 24/15 A2997
KANE 190050Z 11006KT 10SM BKN250 26/15 A2998
KANE 182350Z 11008KT 10SM BKN250 27/15 A2999
KANE 182250Z 12005KT 10SM BKN250 27/14 A3002
KANE 182150Z 13006KT 10SM BKN250 28/14 A3002
KANE 182050Z 13006KT 10SM BKN250 28/13 A3003
KANE 181945Z 11003KT 10SM FEW050 BKN250 28/13 A3005
KANE 181846Z 11003KT 10SM FEW060 BKN250 27/13 A3006
KANE 181748Z VRB03KT 10SM FEW060 BKN250 27/13 A3007
KANE 181648Z 13003KT 10SM FEW060 BKN250 27/13 A3009
KANE 181545Z 20005KT 10SM FEW070 BKN250 26/13 A3010
KANE 181445Z 14004KT 10SM BKN250 24/14 A3011
KANE 181345Z 14004KT 10SM FEW250 23/14 A3012
KANE 181250Z 00000KT 10SM FEW250 21/14 A3012
KANE 181155Z AUTO 00000KT 10SM CLR 17/15 A3012 RMK AO2
KANE 181148Z 00000KT 10SM FEW070 SCT250 17/15 A3012
KANE 181136Z AUTO 00000KT 10SM CLR 16/14 A3012 RMK AO2
KANE 181135Z AUTO 00000KT 10SM CLR 16/14 A3012 RMK AO2
KANE 181116Z AUTO 00000KT 10SM CLR 16/14 A3012 RMK AO2
KANE 181115Z AUTO 00000KT 10SM CLR 16/14 A3012 RMK AO2
KANE 181055Z AUTO 00000KT 10SM CLR 16/14 A3012 RMK AO2
KANE 181036Z AUTO 15003KT 10SM CLR 15/14 A3013 RMK AO2
KANE 181035Z AUTO 00000KT 10SM CLR 15/14 A3013 RMK AO2
KANE 181016Z AUTO 09003KT 10SM CLR 15/14 A3013 RMK AO2
KANE 181015Z AUTO 00000KT 10SM CLR 15/14 A3013 RMK AO2
KANE 180955Z AUTO 00000KT 10SM CLR 15/14 A3012 RMK AO2
KANE 180936Z AUTO 00000KT 10SM CLR 16/15 A3012 RMK AO2
KANE 180935Z AUTO 00000KT 10SM CLR 16/15 A3012 RMK AO2
KANE 180915Z AUTO 00000KT 10SM CLR 16/14 A3012 RMK AO2
KANE 180856Z AUTO 00000KT 10SM CLR 16/15 A3011 RMK AO2
KANE 180855Z AUTO 00000KT 10SM CLR 16/15 A3011 RMK AO2
KANE 180836Z AUTO 00000KT 10SM CLR 16/14 A3011 RMK AO2
KANE 180835Z AUTO 00000KT 10SM CLR 16/14 A3011 RMK AO2
KANE 180815Z AUTO 00000KT 10SM CLR 16/14 A3011 RMK AO2
KANE 180756Z AUTO 00000KT 10SM CLR 16/14 A3011 RMK AO2
KANE 180755Z AUTO 00000KT 10SM CLR 16/14 A3011 RMK AO2
KANE 180736Z AUTO 00000KT 10SM CLR 16/15 A3012 RMK AO2